Terminal Aerodrome Forecast
Issued by NWS Wilmington, OH

Current Version | Previous Version | Text Only | Print | Product List | Glossary Off
Versions: 1 2 3 4 5 6 7 8 9 10 11 12 13 14 15 16 17 18 19 20 21 22 23 24 25 26 27 28 29

000
FTUS41 KILN 250300 AAB
TAFILN
TAF AMD
KILN 250302Z 2503/2524 25020G29KT P6SM VCSH BKN019 OVC024
      TEMPO 2503/2507 -SHRA SCT019 OVC035
     FM250800 25016G28KT P6SM VCSH OVC022
     FM251200 24012G21KT P6SM BKN020=

USA.gov is the U.S. government's official web portal to all federal, state and local government web resources and services.